Meteo Giornale » Osservazioni meteo Italia » Firenze-Peretola

ore: 08:50 - Osservazioni Meteo Firenze-Peretola
Lat. 43° 48' N Lon. 11° 12' E Alt. 40 metri s.l.m.

poco_nuvoloso Europe/Rome

15 °C

Poco Nuvoloso

Temp. 24 Ore

13 °C

24 °C

Nord

5.5 Km/h

Dew point 13 °C

Umidità 87 %

Visibilità  10 Km

Il sole sorge alle ore 07:29

Il sole tramonta alle ore 18:31

Data e Ora Cielo e Fenomeni T °C DP °C Um. % Pres. hPa Vis. km Vento km/h
Oggi h: 08:50 poco_nuvoloso Poco Nuvoloso 15 13 87 1017 10 N 5.5
Oggi h: 08:20 poco_nuvoloso Poco Nuvoloso 14 13 93 1016 10 N 5.5
Oggi h: 07:50 poco_nuvoloso Poco Nuvoloso 13 12 93 1016 10 E 9.3
Oggi h: 06:50 poco_nuvoloso Poco Nuvoloso 13 12 93 1015 10 E 11.1
Oggi h: 06:20 poco_nuvoloso Poco Nuvoloso 13 12 93 1015 10 E 7.4
Oggi h: 05:20 nuvoloso Nuvoloso 14 13 93 1015 10 N 3.7
Oggi h: 04:50 nuvoloso Nuvoloso 15 14 93 1015 10 N 5.5
Oggi h: 04:20 nuvoloso Nuvoloso 15 14 93 1015 10 N 1.8
Oggi h: 03:50 nuvoloso Nuvoloso 15 13 87 1015 10 E/SE 7.4
Oggi h: 03:20 nuvoloso Nuvoloso 15 14 93 1015 10 E 7.4
Oggi h: 02:50 nuvoloso Nuvoloso 15 14 93 1015 10 E 7.4
Oggi h: 02:20 poco_nuvoloso Poco Nuvoloso 16 14 87 1015 10 S/SE 7.4
Oggi h: 01:50 molto_nuvoloso Molto Nuvoloso 16 14 87 1015 10 SE 7.4
Oggi h: 01:20 nuvoloso Nuvoloso 16 15 93 1014 10 S 7.4
Oggi h: 00:50 nuvoloso Nuvoloso 17 15 88 1014 10 S 9.3
Oggi h: 00:20 nuvoloso Nuvoloso 17 15 88 1014 10 S/SO 13
Ieri h: 23:50 nuvoloso Nuvoloso 17 16 93 1014 10 S/SO 11.1
Ieri h: 23:20 nuvoloso Nuvoloso 17 16 93 1014 10 S 9.3
Ieri h: 22:50 nuvoloso Nuvoloso 17 16 93 1014 10 S 7.4
Ieri h: 22:20 nuvoloso Nuvoloso 17 16 93 1013 10 S 9.3
Ieri h: 21:50 molto_nuvoloso Molto Nuvoloso 17 16 93 1013 10 SE 9.3
Ieri h: 21:20 molto_nuvoloso Molto Nuvoloso 17 16 93 1013 10 E/SE 11.1
Ieri h: 20:20 coperto_pioggia Pioggia Debole 17 17 100 1012 10 E/SE 7.4
Ieri h: 19:50 coperto_pioggia Pioggia Debole 16 16 100 1013 10 N 5.5
Ieri h: 19:20 nuvoloso_temporali Temporale con Pioggia 17 16 93 1013 4 N 5.5
Ieri h: 18:20 molto_nuvoloso Molto Nuvoloso 23 17 68 1010 10 S/SE 20.3
Ieri h: 17:50 molto_nuvoloso Molto Nuvoloso 23 17 68 1010 10 S/SE 20.3
Ieri h: 17:20 nuvoloso Nuvoloso 24 17 64 1010 10 SE 22.2
Ieri h: 16:50 molto_nuvoloso Molto Nuvoloso 24 17 64 1011 10 S/SE 16.7
Ieri h: 16:20 molto_nuvoloso Molto Nuvoloso 24 17 64 1011 10 S 13
Ieri h: 15:50 molto_nuvoloso Molto Nuvoloso 24 17 64 1011 10 SE 11.1
Ieri h: 15:20 molto_nuvoloso Molto Nuvoloso 23 17 68 1012 10 SE 9.3
Ieri h: 14:50 molto_nuvoloso Molto Nuvoloso 23 17 68 1012 10 E/SE 13
Ieri h: 14:20 nuvoloso Nuvoloso 23 18 73 1013 10 E 16.7
Ieri h: 13:50 nuvoloso Nuvoloso 22 19 83 1014 10 E 14.8
Ieri h: 13:20 nuvoloso Nuvoloso 20 18 88 1014 10 E 9.3
Ieri h: 12:50 coperto_pioggia Pioggia Debole 19 17 88 1015 10 E 13
Ieri h: 12:20 coperto_pioggia Pioggia 20 17 82 1015 4 S/SE 13
Ieri h: 11:50 coperto_pioggia Pioggia Debole 22 15 64 1015 8 E 16.7
Ieri h: 11:20 nuvoloso Nuvoloso 23 16 64 1015 10 E/SE 13
Ieri h: 10:50 nuvoloso Nuvoloso 22 16 68 1016 10 E/SE 13
Ieri h: 10:20 nuvoloso Nuvoloso 21 16 73 1016 10 E/SE 13
Ieri h: 09:50 nuvoloso Nuvoloso 21 16 73 1016 10 E 9.3